createdAt,value
2018-10-16T00:01:21.594Z,61.30
2018-10-16T00:03:49.120Z,60.90
2018-10-16T00:06:16.652Z,61.20
2018-10-16T00:08:44.211Z,61.10
2018-10-16T00:11:11.745Z,61.00
2018-10-16T00:13:40.898Z,61.30
2018-10-16T00:16:09.708Z,61.20
2018-10-16T00:18:38.068Z,61.20
2018-10-16T00:21:06.145Z,61.20
2018-10-16T00:23:34.236Z,62.50
2018-10-16T00:26:02.311Z,61.50
2018-10-16T00:28:30.787Z,61.40
2018-10-16T00:30:59.449Z,61.70
2018-10-16T00:33:27.456Z,61.60
2018-10-16T00:35:54.953Z,61.70
2018-10-16T00:38:23.199Z,61.20
2018-10-16T00:40:50.726Z,61.50
2018-10-16T00:43:18.240Z,61.50
2018-10-16T00:45:45.985Z,61.90
2018-10-16T00:48:14.353Z,62.10
2018-10-16T00:50:41.952Z,61.80
2018-10-16T00:53:09.476Z,62.10
2018-10-16T00:55:37.073Z,62.10
2018-10-16T00:58:06.051Z,62.30
2018-10-16T01:00:33.681Z,62.10
2018-10-16T01:03:01.176Z,61.30
2018-10-16T01:05:29.083Z,62.00
2018-10-16T01:07:57.448Z,62.40
2018-10-16T01:10:25.620Z,62.20
2018-10-16T01:12:53.168Z,62.10
2018-10-16T01:15:20.674Z,61.90
2018-10-16T01:17:49.028Z,61.80
2018-10-16T01:20:18.022Z,61.70
2018-10-16T01:22:45.520Z,61.90
2018-10-16T01:25:13.771Z,61.90
2018-10-16T01:27:41.270Z,62.00
2018-10-16T01:30:09.424Z,62.70
2018-10-16T01:32:37.709Z,62.20
2018-10-16T01:35:07.092Z,62.10
2018-10-16T01:37:35.076Z,62.40
2018-10-16T01:40:03.133Z,62.40
2018-10-16T01:42:30.644Z,62.60
2018-10-16T01:44:58.379Z,62.60
2018-10-16T01:47:25.880Z,62.50
2018-10-16T01:49:54.126Z,62.10
2018-10-16T01:52:22.300Z,62.50
2018-10-16T01:54:50.496Z,62.90
2018-10-16T01:57:18.756Z,62.40
2018-10-16T01:59:46.236Z,62.40
2018-10-16T02:02:13.818Z,63.00
2018-10-16T02:04:41.408Z,63.50
2018-10-16T02:07:08.920Z,63.30
2018-10-16T02:09:37.113Z,63.40
2018-10-16T02:12:04.736Z,63.50
2018-10-16T02:14:32.321Z,64.00
2018-10-16T02:17:00.274Z,63.70
2018-10-16T02:19:29.315Z,63.80
2018-10-16T02:21:56.848Z,64.20
2018-10-16T02:24:25.012Z,64.10
2018-10-16T02:26:54.252Z,64.50
2018-10-16T02:29:22.313Z,64.30
2018-10-16T02:31:50.572Z,64.50
2018-10-16T02:34:19.710Z,64.00
2018-10-16T02:36:48.080Z,64.00
2018-10-16T02:39:16.059Z,64.10
2018-10-16T02:41:43.556Z,64.00
2018-10-16T02:44:11.067Z,64.40
2018-10-16T02:46:38.622Z,64.20
2018-10-16T02:49:07.796Z,63.80
2018-10-16T02:51:36.097Z,63.70
2018-10-16T02:54:04.624Z,64.20
2018-10-16T02:56:33.221Z,63.90
2018-10-16T02:59:00.710Z,64.10
2018-10-16T03:01:28.208Z,64.10
2018-10-16T03:03:55.732Z,64.30
2018-10-16T03:06:23.811Z,64.30
2018-10-16T03:08:51.396Z,64.10
2018-10-16T03:11:18.940Z,64.30
2018-10-16T03:13:46.489Z,64.30
2018-10-16T03:16:14.524Z,64.20
2018-10-16T03:18:42.516Z,64.90
2018-10-16T03:21:10.000Z,64.00
2018-10-16T03:23:38.112Z,64.00
2018-10-16T03:26:06.334Z,63.90
2018-10-16T03:28:33.818Z,63.90
2018-10-16T03:31:01.993Z,64.10
2018-10-16T03:33:30.060Z,64.10
2018-10-16T03:35:57.665Z,64.10
2018-10-16T03:38:26.000Z,64.10
2018-10-16T03:40:53.611Z,64.10
2018-10-16T03:43:21.096Z,64.50
2018-10-16T03:45:48.888Z,64.60
2018-10-16T03:48:17.012Z,64.60
2018-10-16T03:50:45.576Z,64.50
2018-10-16T03:53:13.156Z,64.70
2018-10-16T03:55:40.642Z,64.70
2018-10-16T03:58:08.324Z,65.00
2018-10-16T04:00:35.824Z,65.40
2018-10-16T04:03:05.378Z,65.20
2018-10-16T04:05:32.875Z,65.20
2018-10-16T04:08:00.415Z,65.40
2018-10-16T04:10:28.124Z,65.50
2018-10-16T04:12:56.811Z,65.90
2018-10-16T04:15:24.933Z,66.70
2018-10-16T04:17:52.894Z,66.60
2018-10-16T04:20:20.464Z,66.60
2018-10-16T04:22:48.639Z,66.90
2018-10-16T04:25:16.891Z,66.30
2018-10-16T04:27:44.419Z,66.40
2018-10-16T04:30:12.635Z,66.50
2018-10-16T04:32:40.127Z,66.30
2018-10-16T04:35:11.243Z,66.50
2018-10-16T04:37:39.224Z,66.50
2018-10-16T04:40:07.394Z,67.20
2018-10-16T04:42:34.904Z,66.60
2018-10-16T04:45:02.451Z,66.80
2018-10-16T04:47:30.276Z,67.10
2018-10-16T04:49:58.578Z,66.70
2018-10-16T04:52:27.012Z,67.10
2018-10-16T04:54:55.378Z,66.70
2018-10-16T04:57:22.877Z,67.10
2018-10-16T04:59:50.415Z,67.20
2018-10-16T05:02:19.400Z,67.00
2018-10-16T05:04:46.915Z,67.20
2018-10-16T05:07:14.484Z,67.00
2018-10-16T05:09:42.968Z,68.30
2018-10-16T05:12:10.545Z,67.60
2018-10-16T05:14:38.033Z,67.60
2018-10-16T05:17:06.288Z,67.70
2018-10-16T05:19:35.210Z,67.50
2018-10-16T05:22:02.720Z,67.50
2018-10-16T05:24:31.543Z,67.40
2018-10-16T05:26:59.713Z,67.50
2018-10-16T05:29:27.771Z,67.60
2018-10-16T05:31:55.276Z,67.50
2018-10-16T05:34:23.440Z,67.70
2018-10-16T05:36:51.721Z,67.70
2018-10-16T05:39:19.385Z,67.60
2018-10-16T05:41:46.838Z,67.80
2018-10-16T05:44:15.144Z,67.80
2018-10-16T05:46:43.308Z,68.10
2018-10-16T05:49:11.349Z,68.00
2018-10-16T05:51:38.871Z,68.50
2018-10-16T05:54:06.521Z,68.00
2018-10-16T05:56:34.067Z,68.00
2018-10-16T05:59:02.144Z,68.00
2018-10-16T06:01:29.764Z,68.10
2018-10-16T06:03:57.256Z,68.10
2018-10-16T06:06:24.816Z,68.20
2018-10-16T06:08:54.147Z,68.00
2018-10-16T06:11:21.658Z,68.90
2018-10-16T06:13:49.155Z,68.10
2018-10-16T06:16:17.276Z,68.30
2018-10-16T06:18:45.328Z,67.60
2018-10-16T06:21:12.899Z,69.00
2018-10-16T06:23:41.268Z,68.10
2018-10-16T06:26:09.360Z,68.80
2018-10-16T06:28:37.771Z,67.90
2018-10-16T06:31:05.675Z,67.80
2018-10-16T06:33:33.232Z,67.80
2018-10-16T06:36:00.740Z,67.80
2018-10-16T06:38:28.623Z,67.90
2018-10-16T06:40:57.067Z,67.70
2018-10-16T06:43:25.068Z,67.50
2018-10-16T06:45:53.016Z,67.50
2018-10-16T06:48:21.422Z,67.40
2018-10-16T06:50:48.684Z,66.90
2018-10-16T06:53:16.425Z,67.10
2018-10-16T06:55:44.028Z,67.00
2018-10-16T06:58:12.793Z,67.00
2018-10-16T07:00:40.309Z,66.60
2018-10-16T07:03:07.968Z,66.20
2018-10-16T07:05:36.012Z,66.30
2018-10-16T07:08:04.296Z,66.30
2018-10-16T07:10:31.803Z,66.10
2018-10-16T07:12:59.321Z,65.90
2018-10-16T07:15:27.594Z,66.10
2018-10-16T07:17:55.764Z,65.80
2018-10-16T07:20:23.543Z,65.40
2018-10-16T07:22:51.073Z,65.40
2018-10-16T07:25:19.380Z,65.40
2018-10-16T07:27:47.660Z,65.10
2018-10-16T07:30:16.334Z,65.60
2018-10-16T07:32:44.066Z,64.60
2018-10-16T07:35:11.634Z,63.50
2018-10-16T07:37:40.311Z,64.00
2018-10-16T07:40:09.036Z,63.70
2018-10-16T07:42:37.089Z,63.90
2018-10-16T07:45:05.664Z,63.80
2018-10-16T07:47:33.882Z,63.10
2018-10-16T07:50:01.448Z,63.40
2018-10-16T07:52:29.100Z,63.50
2018-10-16T07:54:57.222Z,62.70
2018-10-16T07:57:25.629Z,63.20
2018-10-16T07:59:53.083Z,62.30
2018-10-16T08:02:21.351Z,62.20
2018-10-16T08:04:48.860Z,61.50
2018-10-16T08:07:16.385Z,62.30
2018-10-16T08:09:44.027Z,61.70
2018-10-16T08:12:12.282Z,60.50
2018-10-16T08:14:40.018Z,60.60
2018-10-16T08:17:08.137Z,60.80
2018-10-16T08:19:35.640Z,60.10
2018-10-16T08:22:03.160Z,59.90
2018-10-16T08:24:31.491Z,60.00
2018-10-16T08:26:59.836Z,60.50
2018-10-16T08:29:28.711Z,59.90
2018-10-16T08:31:56.270Z,59.60
2018-10-16T08:34:23.812Z,59.40
2018-10-16T08:36:52.266Z,58.80
2018-10-16T08:39:24.121Z,58.30
2018-10-16T08:45:08.746Z,59.10
2018-10-16T08:47:48.540Z,58.90
2018-10-16T08:50:27.540Z,58.00
2018-10-16T08:52:55.872Z,58.80
2018-10-16T08:55:23.907Z,58.60
2018-10-16T08:57:51.430Z,57.50
2018-10-16T09:00:20.256Z,57.60
2018-10-16T09:02:47.772Z,57.70
2018-10-16T09:05:15.275Z,58.60
2018-10-16T09:07:42.935Z,57.00
2018-10-16T09:10:11.143Z,57.50
2018-10-16T09:12:38.672Z,56.80
2018-10-16T09:15:06.808Z,56.70
2018-10-16T09:17:35.384Z,56.70
2018-10-16T09:20:02.943Z,56.70
2018-10-16T09:22:31.320Z,54.70
2018-10-16T09:24:59.557Z,55.40
2018-10-16T09:27:27.024Z,55.60
2018-10-16T09:29:55.961Z,55.60
2018-10-16T09:32:23.476Z,55.90
2018-10-16T09:34:50.998Z,55.10
2018-10-16T09:37:19.680Z,54.70
2018-10-16T09:39:47.773Z,54.80
2018-10-16T09:42:15.657Z,54.50
2018-10-16T09:44:43.703Z,54.90
2018-10-16T09:47:11.868Z,54.60
2018-10-16T09:49:39.813Z,53.40
2018-10-16T09:52:07.453Z,53.60
2018-10-16T09:54:35.036Z,53.00
2018-10-16T09:57:03.144Z,52.80
2018-10-16T09:59:31.225Z,52.30
2018-10-16T10:01:59.508Z,52.70
2018-10-16T10:04:27.025Z,52.50
2018-10-16T10:06:55.155Z,53.80
2018-10-16T10:09:22.670Z,52.90
2018-10-16T10:11:51.018Z,52.40
2018-10-16T10:14:18.537Z,52.20
2018-10-16T10:16:46.732Z,52.20
2018-10-16T10:19:14.373Z,52.20
2018-10-16T10:21:41.897Z,51.70
2018-10-16T10:24:10.260Z,52.30
2018-10-16T10:26:38.668Z,51.20
2018-10-16T10:29:06.170Z,51.60
2018-10-16T10:31:33.722Z,50.90
2018-10-16T10:34:03.489Z,51.30
2018-10-16T10:36:31.782Z,50.80
2018-10-16T10:38:59.833Z,51.60
2018-10-16T10:41:27.368Z,50.00
2018-10-16T10:43:54.890Z,50.60
2018-10-16T10:46:23.241Z,51.10
2018-10-16T10:48:51.251Z,49.50
2018-10-16T10:51:19.073Z,50.20
2018-10-16T10:53:47.015Z,51.30
2018-10-16T10:56:16.264Z,50.20
2018-10-16T10:58:43.800Z,49.40
2018-10-16T11:01:12.416Z,49.30
2018-10-16T11:03:40.081Z,48.40
2018-10-16T11:06:08.849Z,47.80
2018-10-16T11:08:36.362Z,47.40
2018-10-16T11:11:03.924Z,46.80
2018-10-16T11:13:31.773Z,48.10
2018-10-16T11:16:00.792Z,48.20
2018-10-16T11:18:29.086Z,45.10
2018-10-16T11:20:56.729Z,47.60
2018-10-16T11:23:24.268Z,47.70
2018-10-16T11:25:52.368Z,45.80
2018-10-16T11:28:19.902Z,43.70
2018-10-16T11:30:47.522Z,45.70
2018-10-16T11:33:16.381Z,44.30
2018-10-16T11:35:45.353Z,46.40
2018-10-16T11:38:13.300Z,46.50
2018-10-16T11:40:40.937Z,47.20
2018-10-16T11:43:08.482Z,46.50
2018-10-16T11:45:37.529Z,46.40
2018-10-16T11:48:05.807Z,46.00
2018-10-16T11:50:33.363Z,46.30
2018-10-16T11:53:01.752Z,45.00
2018-10-16T11:55:29.984Z,45.60
2018-10-16T11:57:58.160Z,46.00
2018-10-16T12:00:25.742Z,45.40
2018-10-16T12:02:54.431Z,45.90
2018-10-16T12:05:22.115Z,45.70
2018-10-16T12:07:49.699Z,44.00
2018-10-16T12:10:17.560Z,43.90
2018-10-16T12:12:45.210Z,44.50
2018-10-16T12:15:13.265Z,44.40
2018-10-16T12:17:45.551Z,43.60
2018-10-16T12:20:19.492Z,43.10
2018-10-16T12:22:47.544Z,42.90
2018-10-16T12:25:15.751Z,42.60
2018-10-16T12:27:43.236Z,42.20
2018-10-16T12:30:12.664Z,41.80
2018-10-16T12:32:40.185Z,41.80
2018-10-16T12:35:07.834Z,42.20
2018-10-16T12:37:36.248Z,41.80
2018-10-16T12:40:05.024Z,41.00
2018-10-16T12:42:33.266Z,41.40
2018-10-16T12:45:01.557Z,40.90
2018-10-16T12:47:29.032Z,41.50
2018-10-16T12:49:57.094Z,41.50
2018-10-16T12:52:25.460Z,41.90
2018-10-16T12:54:53.676Z,40.80
2018-10-16T12:57:21.294Z,40.40
2018-10-16T12:59:49.705Z,40.50
2018-10-16T13:02:17.308Z,40.70
2018-10-16T13:04:44.828Z,41.40
2018-10-16T13:07:21.312Z,41.30
2018-10-16T13:09:49.401Z,42.10
2018-10-16T13:12:17.491Z,42.30
2018-10-16T13:14:45.056Z,42.80
2018-10-16T13:17:13.054Z,43.50
2018-10-16T13:19:40.548Z,43.10
2018-10-16T13:22:08.242Z,43.20
2018-10-16T13:24:36.784Z,44.00
2018-10-16T13:27:05.488Z,44.00
2018-10-16T13:29:33.254Z,44.40
2018-10-16T13:32:00.915Z,44.40
2018-10-16T13:34:28.834Z,44.40
2018-10-16T13:36:57.223Z,44.50
2018-10-16T13:39:27.897Z,44.90
2018-10-16T13:41:55.445Z,46.80
2018-10-16T13:44:23.861Z,48.20
2018-10-16T13:46:51.760Z,47.20
2018-10-16T13:49:19.820Z,47.50
2018-10-16T13:51:47.441Z,46.90
2018-10-16T13:54:14.987Z,45.40
2018-10-16T14:03:30.149Z,51.80
2018-10-16T14:05:58.798Z,50.60
2018-10-16T14:08:26.324Z,50.40
2018-10-16T14:10:55.363Z,50.90
2018-10-16T14:13:22.921Z,51.50
2018-10-16T14:15:52.479Z,50.90
2018-10-16T14:18:20.424Z,53.60
2018-10-16T14:20:48.619Z,51.60
2018-10-16T14:23:16.160Z,50.70
2018-10-16T14:25:44.534Z,51.70
2018-10-16T14:28:12.269Z,51.10
2018-10-16T14:30:39.820Z,51.10
2018-10-16T14:33:09.880Z,51.50
2018-10-16T14:35:37.632Z,51.40
2018-10-16T14:38:06.383Z,51.60
2018-10-16T14:40:34.526Z,54.00
2018-10-16T14:43:02.034Z,53.10
2018-10-16T14:45:30.049Z,53.20
2018-10-16T14:47:58.043Z,53.20
2018-10-16T14:50:26.208Z,53.30
2018-10-16T14:52:54.217Z,53.00
2018-10-16T14:55:22.555Z,53.60
2018-10-16T14:57:50.869Z,53.60
2018-10-16T15:00:19.193Z,56.00
2018-10-16T15:02:47.228Z,55.30
2018-10-16T15:05:15.208Z,55.90
2018-10-16T15:07:43.552Z,55.70
2018-10-16T15:10:12.031Z,57.00
2018-10-16T15:12:40.224Z,55.40
2018-10-16T15:15:08.590Z,57.00
2018-10-16T15:17:36.815Z,55.90
2018-10-16T15:20:06.644Z,56.50
2018-10-16T15:22:34.488Z,59.80
2018-10-16T15:25:02.684Z,57.90
2018-10-16T15:27:30.284Z,57.90
2018-10-16T15:29:58.992Z,58.50
2018-10-16T15:32:27.102Z,59.50
2018-10-16T15:34:55.976Z,60.00
2018-10-16T15:37:24.157Z,60.40
2018-10-16T15:39:52.098Z,59.10
2018-10-16T15:42:19.620Z,59.80
2018-10-16T15:44:47.776Z,59.90
2018-10-16T15:47:15.312Z,59.50
2018-10-16T15:49:43.490Z,60.80
2018-10-16T15:52:11.900Z,59.70
2018-10-16T15:54:39.481Z,59.50
2018-10-16T15:57:07.843Z,59.70
2018-10-16T15:59:35.372Z,59.80
2018-10-16T16:02:04.443Z,60.10
2018-10-16T16:04:32.422Z,60.90
2018-10-16T16:07:00.535Z,65.00
2018-10-16T16:09:28.069Z,63.10
2018-10-16T16:11:55.669Z,63.40
2018-10-16T16:14:23.326Z,62.40
2018-10-16T16:16:52.049Z,62.90
2018-10-16T16:19:19.580Z,63.80
2018-10-16T16:21:47.665Z,65.20
2018-10-16T16:24:15.951Z,66.70
2018-10-16T16:26:43.961Z,67.90
2018-10-16T16:29:11.585Z,65.40
2018-10-16T16:31:39.168Z,66.20
2018-10-16T16:34:07.797Z,66.20
2018-10-16T16:36:36.814Z,66.20
2018-10-16T16:39:07.873Z,66.40
2018-10-16T16:41:35.986Z,66.60
2018-10-16T16:44:03.948Z,67.80
2018-10-16T16:46:31.465Z,67.20
2018-10-16T16:49:00.410Z,67.40
2018-10-16T16:51:28.324Z,67.40
2018-10-16T16:53:56.517Z,67.40
2018-10-16T16:56:24.077Z,74.10
2018-10-16T16:58:51.623Z,72.30
2018-10-16T17:01:19.873Z,69.90
2018-10-16T17:03:47.918Z,69.90
2018-10-16T17:06:15.444Z,69.30
2018-10-16T17:08:43.571Z,69.30
2018-10-16T17:11:11.126Z,71.30
2018-10-16T17:13:38.657Z,69.50
2018-10-16T17:16:06.796Z,71.30
2018-10-16T17:18:34.867Z,72.10
2018-10-16T17:21:03.795Z,73.90
2018-10-16T17:23:31.738Z,72.30
2018-10-16T17:26:00.173Z,72.80
2018-10-16T17:28:27.746Z,73.10
2018-10-16T17:30:55.767Z,73.70
2018-10-16T17:33:24.692Z,76.20
2018-10-16T17:35:52.374Z,74.20
2018-10-16T17:38:20.345Z,73.30
2018-10-16T17:40:48.484Z,74.20
2018-10-16T17:43:16.657Z,73.60
2018-10-16T17:45:44.203Z,77.30
2018-10-16T17:48:12.162Z,79.60
2018-10-16T17:50:39.760Z,77.10
2018-10-16T17:53:07.298Z,76.10
2018-10-16T17:55:35.370Z,78.80
2018-10-16T17:58:03.712Z,76.10
2018-10-16T18:00:31.860Z,77.10
2018-10-16T18:02:59.435Z,76.90
2018-10-16T18:05:26.963Z,76.60
2018-10-16T18:07:54.874Z,77.00
2018-10-16T18:10:23.235Z,78.90
2018-10-16T18:12:51.676Z,76.60
2018-10-16T18:15:20.968Z,76.80
2018-10-16T18:17:48.947Z,77.50
2018-10-16T18:20:16.488Z,76.10
2018-10-16T18:22:45.056Z,75.60
2018-10-16T18:25:13.132Z,76.10
2018-10-16T18:27:41.947Z,80.50
2018-10-16T18:30:09.945Z,83.40
2018-10-16T18:32:38.329Z,83.00
2018-10-16T18:35:06.912Z,78.40
2018-10-16T18:37:36.348Z,78.00
2018-10-16T18:40:05.844Z,78.10
2018-10-16T18:42:34.345Z,77.50
2018-10-16T18:45:02.972Z,77.50
2018-10-16T18:47:30.712Z,78.70
2018-10-16T18:49:58.852Z,77.90
2018-10-16T18:52:27.054Z,79.70
2018-10-16T18:54:54.574Z,81.50
2018-10-16T18:57:22.645Z,82.30
2018-10-16T18:59:51.913Z,80.40
2018-10-16T19:02:20.160Z,82.30
2018-10-16T19:04:47.743Z,78.80
2018-10-16T19:07:15.333Z,79.60
2018-10-16T19:09:43.564Z,79.60
2018-10-16T19:12:11.128Z,80.80
2018-10-16T19:14:39.657Z,80.70
2018-10-16T19:17:07.945Z,81.00
2018-10-16T19:19:35.456Z,86.00
2018-10-16T19:22:04.272Z,83.20
2018-10-16T19:24:32.385Z,83.70
2018-10-16T19:27:00.448Z,82.50
2018-10-16T19:29:28.674Z,82.70
2018-10-16T19:31:56.187Z,84.50
2018-10-16T19:34:24.291Z,84.10
2018-10-16T19:36:52.468Z,81.90
2018-10-16T19:39:20.017Z,84.30
2018-10-16T19:41:47.553Z,82.20
2018-10-16T19:44:16.106Z,81.90
2018-10-16T19:46:44.614Z,82.60
2018-10-16T19:49:12.640Z,84.20
2018-10-16T19:51:40.912Z,84.60
2018-10-16T19:54:08.435Z,84.40
2018-10-16T19:56:36.936Z,82.70
2018-10-16T19:59:04.874Z,82.20
2018-10-16T20:01:33.116Z,84.80
2018-10-16T20:04:00.675Z,83.00
2018-10-16T20:06:28.208Z,83.10
2018-10-16T20:08:56.106Z,81.90
2018-10-16T20:11:24.190Z,82.20
2018-10-16T20:13:51.830Z,82.30
2018-10-16T20:16:20.544Z,81.90
2018-10-16T20:18:48.888Z,80.20
2018-10-16T20:21:16.483Z,81.20
2018-10-16T20:23:44.981Z,82.30
2018-10-16T20:26:13.805Z,83.10
2018-10-16T20:28:41.385Z,82.80
2018-10-16T20:31:08.940Z,83.10
2018-10-16T20:33:36.960Z,84.50
2018-10-16T20:36:04.703Z,83.40
2018-10-16T20:38:34.722Z,82.30
2018-10-16T20:41:03.560Z,85.10
2018-10-16T20:43:31.056Z,83.20
2018-10-16T20:45:58.656Z,82.70
2018-10-16T20:48:26.685Z,82.30
2018-10-16T20:50:54.183Z,81.60
2018-10-16T20:53:22.299Z,83.90
2018-10-16T20:55:50.379Z,83.20
2018-10-16T20:58:17.889Z,82.20
2018-10-16T21:00:45.580Z,83.10
2018-10-16T21:03:13.179Z,82.90
2018-10-16T21:05:40.864Z,83.60
2018-10-16T21:08:09.226Z,83.60
2018-10-16T21:10:36.728Z,84.80
2018-10-16T21:13:04.854Z,85.70
2018-10-16T21:15:32.992Z,84.30
2018-10-16T21:18:01.329Z,84.80
2018-10-16T21:20:29.752Z,85.50
2018-10-16T21:22:57.262Z,84.10
2018-10-16T21:25:25.865Z,83.50
2018-10-16T21:27:55.064Z,83.50
2018-10-16T21:30:23.436Z,84.10
2018-10-16T21:32:50.930Z,84.00
2018-10-16T21:35:19.184Z,83.50
2018-10-16T21:37:47.881Z,83.60
2018-10-16T21:40:15.972Z,85.20
2018-10-16T21:42:44.026Z,83.50
2018-10-16T21:45:12.930Z,83.50
2018-10-16T21:47:41.028Z,85.60
2018-10-16T21:50:08.584Z,83.70
2018-10-16T21:52:36.731Z,83.40
2018-10-16T21:55:05.660Z,83.20
2018-10-16T21:57:33.169Z,83.40
2018-10-16T22:00:01.866Z,82.90
2018-10-16T22:02:35.067Z,83.80
2018-10-16T22:05:03.007Z,82.90
2018-10-16T22:07:31.440Z,84.30
2018-10-16T22:09:58.947Z,85.60
2018-10-16T22:12:27.087Z,84.20
2018-10-16T22:14:54.575Z,83.30
2018-10-16T22:17:22.686Z,82.70
2018-10-16T22:19:51.835Z,84.00
2018-10-16T22:22:19.352Z,85.10
2018-10-16T22:24:47.663Z,84.10
2018-10-16T22:27:15.743Z,85.60
2018-10-16T22:29:43.343Z,86.30
2018-10-16T22:32:10.784Z,84.30
2018-10-16T22:34:38.531Z,84.40
2018-10-16T22:37:07.233Z,84.60
2018-10-16T22:39:35.604Z,84.40
2018-10-16T22:42:03.748Z,84.50
2018-10-16T22:44:31.301Z,83.20
2018-10-16T22:46:58.790Z,84.60
2018-10-16T22:49:27.003Z,84.30
2018-10-16T22:51:54.523Z,84.40
2018-10-16T22:54:22.040Z,83.80
2018-10-16T22:56:49.779Z,83.80
2018-10-16T22:59:17.320Z,83.70
2018-10-16T23:01:45.507Z,84.10
2018-10-16T23:04:13.547Z,83.20
2018-10-16T23:06:41.893Z,83.60
2018-10-16T23:09:09.626Z,83.80
2018-10-16T23:11:37.249Z,82.60
2018-10-16T23:14:04.812Z,82.40
2018-10-16T23:16:33.076Z,82.60
2018-10-16T23:19:00.797Z,82.00
2018-10-16T23:21:29.231Z,82.90
2018-10-16T23:23:58.145Z,82.80
2018-10-16T23:26:26.224Z,82.80
2018-10-16T23:28:53.753Z,82.60
2018-10-16T23:31:22.391Z,83.30
2018-10-16T23:33:50.368Z,82.90
2018-10-16T23:36:17.856Z,82.70
2018-10-16T23:38:46.199Z,82.90
2018-10-16T23:41:14.276Z,82.70
2018-10-16T23:43:42.343Z,84.20
2018-10-16T23:46:09.852Z,83.90
2018-10-16T23:48:37.788Z,84.00
2018-10-16T23:51:06.067Z,83.80
2018-10-16T23:53:33.559Z,83.90
2018-10-16T23:56:01.416Z,83.40
2018-10-16T23:58:28.923Z,83.50
